Aviation Digital Data Service (ADDS)

Output produced by METARs form (0650 UTC 01 March 2015)
found at http://aviationweather.gov/adds/metars/
 
KCKB 010545Z 0106/0206 00000KT P6SM BKN070 
     FM011200 00000KT P6SM -SN OVC035 
     FM011400 VRB03KT 2SM -SN BR OVC012 
     FM011700 20004KT 4SM -RA BR OVC015 
     FM020200 27005KT 3SM -RA BR OVC012